Ater, Texas
Current Conditions -  °F | °C
As of 6:55 PM on Tuesday 21 Oct 2014 (Local Time) from KGOP Reporting Station
Clear Clear  
Wind Chill: 73°   Ceiling: Unl
Heat Index: 73°   Visibility: 10mi
Dew Point: 50°   Wind: 0mph
Humidity: 44%   Direction: NA
Pressure: 30.04"   Gusts: NA
Location:  31.392°N, 97.7452°W
Report Text: KGOP 212355Z AUTO 00000KT 10SM CLR 23/10 A3004 RMK AO2
Loading
Personal Weather Stations






























Interactive Weather Map
Tropical Storm Tracking
New forecast layout! Learn more

10-Day Weather Forecast

Advertisements
Track Severe Weather on mobile